createdAt,value
2018-11-27T00:02:17.639Z,2.67
2018-11-27T00:04:44.816Z,2.68
2018-11-27T00:07:12.025Z,2.71
2018-11-27T00:09:39.185Z,2.69
2018-11-27T00:12:06.394Z,2.68
2018-11-27T00:14:33.599Z,2.72
2018-11-27T00:17:00.814Z,2.70
2018-11-27T00:19:27.955Z,2.71
2018-11-27T00:21:55.136Z,2.67
2018-11-27T00:24:22.305Z,2.65
2018-11-27T00:26:49.530Z,2.62
2018-11-27T00:29:16.745Z,2.62
2018-11-27T00:31:43.927Z,2.56
2018-11-27T00:34:11.123Z,2.54
2018-11-27T00:36:38.277Z,2.53
2018-11-27T00:39:07.739Z,2.63
2018-11-27T00:41:35.758Z,2.53
2018-11-27T00:44:03.023Z,2.53
2018-11-27T00:46:30.217Z,2.57
2018-11-27T00:48:57.383Z,2.54
2018-11-27T00:51:24.546Z,2.57
2018-11-27T00:53:51.723Z,2.51
2018-11-27T00:56:18.916Z,2.59
2018-11-27T00:58:46.118Z,2.68
2018-11-27T01:01:13.243Z,2.64
2018-11-27T01:03:40.413Z,2.62
2018-11-27T01:06:07.554Z,2.61
2018-11-27T01:08:34.722Z,2.62
2018-11-27T01:11:01.939Z,2.56
2018-11-27T01:13:29.134Z,2.51
2018-11-27T01:15:56.324Z,2.59
2018-11-27T01:18:23.507Z,2.52
2018-11-27T01:20:50.770Z,2.50
2018-11-27T01:23:17.951Z,2.46
2018-11-27T01:25:45.175Z,2.49
2018-11-27T01:28:12.394Z,2.48
2018-11-27T01:30:39.604Z,2.55
2018-11-27T01:33:06.810Z,2.56
2018-11-27T01:35:34.063Z,2.47
2018-11-27T01:38:01.247Z,2.49
2018-11-27T01:40:28.456Z,2.51
2018-11-27T01:42:56.497Z,2.47
2018-11-27T01:45:24.262Z,2.51
2018-11-27T01:47:51.517Z,2.52
2018-11-27T01:50:19.257Z,2.49
2018-11-27T01:52:46.535Z,2.49
2018-11-27T01:55:14.503Z,2.52
2018-11-27T01:57:41.696Z,2.43
2018-11-27T02:00:22.399Z,2.41
2018-11-27T02:02:49.908Z,2.43
2018-11-27T02:05:17.138Z,2.50
2018-11-27T02:07:44.286Z,2.60
2018-11-27T02:10:11.955Z,2.49
2018-11-27T02:12:40.046Z,2.57
2018-11-27T02:15:09.470Z,2.49
2018-11-27T02:17:36.687Z,2.56
2018-11-27T02:20:04.623Z,2.47
2018-11-27T02:22:31.851Z,2.50
2018-11-27T02:24:58.991Z,2.42
2018-11-27T02:27:26.198Z,2.38
2018-11-27T02:29:53.383Z,2.59
2018-11-27T02:32:20.544Z,2.49
2018-11-27T02:34:47.709Z,2.34
2018-11-27T02:37:14.962Z,2.33
2018-11-27T02:39:42.154Z,2.31
2018-11-27T02:42:09.359Z,2.31
2018-11-27T02:44:36.547Z,2.24
2018-11-27T02:47:03.790Z,2.21
2018-11-27T02:49:30.977Z,2.32
2018-11-27T02:51:58.149Z,2.26
2018-11-27T02:54:25.299Z,2.29
2018-11-27T02:56:52.460Z,2.17
2018-11-27T02:59:19.639Z,2.15
2018-11-27T03:01:46.824Z,2.24
2018-11-27T03:04:13.981Z,2.21
2018-11-27T03:06:41.139Z,2.23
2018-11-27T03:09:08.719Z,2.20
2018-11-27T03:11:36.133Z,2.11
2018-11-27T03:14:03.409Z,2.12
2018-11-27T03:16:30.634Z,2.06
2018-11-27T03:18:57.814Z,2.24
2018-11-27T03:21:25.004Z,2.12
2018-11-27T03:23:52.185Z,2.10
2018-11-27T03:26:19.394Z,2.15
2018-11-27T03:28:46.572Z,2.16
2018-11-27T03:31:13.741Z,2.16
2018-11-27T03:33:40.942Z,2.20
2018-11-27T03:36:08.142Z,2.13
2018-11-27T03:38:35.325Z,1.99
2018-11-27T03:41:02.616Z,2.02
2018-11-27T03:43:29.809Z,2.05
2018-11-27T03:45:57.021Z,1.96
2018-11-27T03:48:24.204Z,1.99
2018-11-27T03:50:51.387Z,2.00
2018-11-27T03:53:18.570Z,1.97
2018-11-27T03:55:45.874Z,2.01
2018-11-27T03:58:13.106Z,1.98
2018-11-27T04:00:40.304Z,1.92
2018-11-27T04:03:09.775Z,1.92
2018-11-27T04:05:37.360Z,2.02
2018-11-27T04:08:05.774Z,1.98
2018-11-27T04:10:32.992Z,2.00
2018-11-27T04:13:00.214Z,2.11
2018-11-27T04:15:27.469Z,2.02
2018-11-27T04:17:54.621Z,2.12
2018-11-27T04:20:21.765Z,1.99
2018-11-27T04:22:48.935Z,1.98
2018-11-27T04:25:16.875Z,1.82
2018-11-27T04:27:44.735Z,1.83
2018-11-27T04:30:12.961Z,1.83
2018-11-27T04:32:40.413Z,1.84
2018-11-27T04:35:09.056Z,1.84
2018-11-27T04:37:36.204Z,1.78
2018-11-27T04:40:04.027Z,1.84
2018-11-27T04:42:31.170Z,1.84
2018-11-27T04:44:58.383Z,1.83
2018-11-27T04:47:25.588Z,1.87
2018-11-27T04:49:52.771Z,1.81
2018-11-27T04:52:19.894Z,1.72
2018-11-27T04:54:47.079Z,1.71
2018-11-27T04:57:14.260Z,1.80
2018-11-27T04:59:41.447Z,1.77
2018-11-27T05:02:08.638Z,1.84
2018-11-27T05:04:35.851Z,1.78
2018-11-27T05:07:03.071Z,1.78
2018-11-27T05:09:30.419Z,1.95
2018-11-27T05:11:57.574Z,1.70
2018-11-27T05:14:24.701Z,1.71
2018-11-27T05:16:51.836Z,1.64
2018-11-27T05:19:19.015Z,1.66
2018-11-27T05:21:46.167Z,1.71
2018-11-27T05:24:13.348Z,1.67
2018-11-27T05:26:40.542Z,1.73
2018-11-27T05:29:07.682Z,1.72
2018-11-27T05:31:34.861Z,1.63
2018-11-27T05:34:02.022Z,1.63
2018-11-27T05:36:29.203Z,1.64
2018-11-27T05:38:56.410Z,1.65
2018-11-27T05:41:23.629Z,1.66
2018-11-27T05:43:50.730Z,1.69
2018-11-27T05:46:17.931Z,1.64
2018-11-27T05:48:45.156Z,1.67
2018-11-27T05:51:12.377Z,1.69
2018-11-27T05:53:39.608Z,1.69
2018-11-27T05:56:06.764Z,1.61
2018-11-27T05:58:33.948Z,1.58
2018-11-27T06:01:01.157Z,1.47
2018-11-27T06:03:28.337Z,1.51
2018-11-27T06:05:55.527Z,1.57
2018-11-27T06:08:22.666Z,1.52
2018-11-27T06:10:49.876Z,1.51
2018-11-27T06:13:17.094Z,1.54
2018-11-27T06:15:44.331Z,1.50
2018-11-27T06:18:11.491Z,1.54
2018-11-27T06:20:38.642Z,1.57
2018-11-27T06:23:05.906Z,1.59
2018-11-27T06:25:33.139Z,1.46
2018-11-27T06:28:03.317Z,1.50
2018-11-27T06:30:31.694Z,1.48
2018-11-27T06:32:58.880Z,1.49
2018-11-27T06:35:28.354Z,1.41
2018-11-27T06:37:55.543Z,1.46
2018-11-27T06:40:24.005Z,1.45
2018-11-27T06:42:51.186Z,1.47
2018-11-27T06:45:19.087Z,1.47
2018-11-27T06:47:47.276Z,1.44
2018-11-27T06:50:15.049Z,1.52
2018-11-27T06:52:42.215Z,1.48
2018-11-27T06:55:10.692Z,1.46
2018-11-27T06:57:37.855Z,1.56
2018-11-27T07:00:09.845Z,1.51
2018-11-27T07:02:37.968Z,1.50
2018-11-27T07:05:04.867Z,1.47
2018-11-27T07:07:32.039Z,1.47
2018-11-27T07:09:59.234Z,1.50
2018-11-27T07:12:26.400Z,1.51
2018-11-27T07:14:53.593Z,1.45
2018-11-27T07:17:20.852Z,1.50
2018-11-27T07:19:48.034Z,1.51
2018-11-27T07:22:15.238Z,1.52
2018-11-27T07:24:42.446Z,1.45
2018-11-27T07:27:09.618Z,1.40
2018-11-27T07:29:36.746Z,1.54
2018-11-27T07:32:09.291Z,1.47
2018-11-27T07:34:31.327Z,1.50
2018-11-27T07:36:58.542Z,1.39
2018-11-27T07:39:25.798Z,1.39
2018-11-27T07:41:52.951Z,1.30
2018-11-27T07:44:20.146Z,1.36
2018-11-27T07:46:47.322Z,1.37
2018-11-27T07:49:14.476Z,1.31
2018-11-27T07:51:41.672Z,1.39
2018-11-27T07:54:08.855Z,1.30
2018-11-27T07:56:36.023Z,1.34
2018-11-27T07:59:03.184Z,1.33
2018-11-27T08:01:30.353Z,1.38
2018-11-27T08:03:57.533Z,1.41
2018-11-27T08:06:24.737Z,1.43
2018-11-27T08:08:51.898Z,1.51
2018-11-27T08:11:19.086Z,1.54
2018-11-27T08:13:46.405Z,1.39
2018-11-27T08:16:13.553Z,1.38
2018-11-27T08:18:47.490Z,1.50
2018-11-27T08:21:14.730Z,1.58
2018-11-27T08:23:41.912Z,1.61
2018-11-27T08:26:09.137Z,1.70
2018-11-27T08:28:36.280Z,1.69
2018-11-27T08:31:03.432Z,1.69
2018-11-27T08:33:30.626Z,1.82
2018-11-27T08:35:57.746Z,1.73
2018-11-27T08:38:24.970Z,1.80
2018-11-27T08:40:52.115Z,1.71
2018-11-27T08:43:19.267Z,1.52
2018-11-27T08:45:46.436Z,1.60
2018-11-27T08:48:13.608Z,1.74
2018-11-27T08:50:40.806Z,1.78
2018-11-27T08:53:07.983Z,1.72
2018-11-27T08:55:37.779Z,1.85
2018-11-27T08:58:10.475Z,1.83
2018-11-27T09:00:37.627Z,1.78
2018-11-27T09:03:05.174Z,2.01
2018-11-27T09:05:32.361Z,1.93
2018-11-27T09:07:59.553Z,1.80
2018-11-27T09:10:26.711Z,1.91
2018-11-27T09:12:53.910Z,1.80
2018-11-27T09:15:21.878Z,1.77
2018-11-27T09:17:55.636Z,1.84
2018-11-27T09:20:22.855Z,1.94
2018-11-27T09:22:50.077Z,1.93
2018-11-27T09:25:17.312Z,1.89
2018-11-27T09:27:44.467Z,1.98
2018-11-27T09:30:15.826Z,2.11
2018-11-27T09:32:43.010Z,2.05
2018-11-27T09:35:10.286Z,2.11
2018-11-27T09:37:37.507Z,2.13
2018-11-27T09:40:07.265Z,2.20
2018-11-27T09:42:34.432Z,2.04
2018-11-27T09:45:01.560Z,2.09
2018-11-27T09:47:28.762Z,2.04
2018-11-27T09:49:55.990Z,2.14
2018-11-27T09:52:23.170Z,2.24
2018-11-27T09:54:50.302Z,2.26
2018-11-27T09:57:17.490Z,2.38
2018-11-27T09:59:44.681Z,2.57
2018-11-27T10:02:11.835Z,2.55
2018-11-27T10:04:38.959Z,2.41
2018-11-27T10:07:06.129Z,2.34
2018-11-27T10:09:33.306Z,2.46
2018-11-27T10:12:00.479Z,2.47
2018-11-27T10:14:27.621Z,2.42
2018-11-27T10:16:54.798Z,2.52
2018-11-27T10:19:26.744Z,2.45
2018-11-27T10:21:49.538Z,2.59
2018-11-27T10:24:16.736Z,2.48
2018-11-27T10:26:44.966Z,2.56
2018-11-27T10:29:12.144Z,2.64
2018-11-27T10:31:39.619Z,2.77
2018-11-27T10:34:06.859Z,2.74
2018-11-27T10:36:35.151Z,2.68
2018-11-27T10:39:02.827Z,2.63
2018-11-27T10:41:30.286Z,2.62
2018-11-27T10:43:58.245Z,2.52
2018-11-27T10:46:25.415Z,2.84
2018-11-27T10:48:52.919Z,2.66
2018-11-27T10:51:21.095Z,2.68
2018-11-27T10:53:50.021Z,2.72
2018-11-27T10:56:17.139Z,2.68
2018-11-27T10:58:44.307Z,2.77
2018-11-27T11:01:18.796Z,2.71
2018-11-27T11:03:46.042Z,2.71
2018-11-27T11:06:13.199Z,2.57
2018-11-27T11:08:41.658Z,2.53
2018-11-27T11:11:08.994Z,2.68
2018-11-27T11:13:36.278Z,2.56
2018-11-27T11:16:03.454Z,2.57
2018-11-27T11:18:32.007Z,2.62
2018-11-27T11:20:59.161Z,2.57
2018-11-27T11:23:26.559Z,2.72
2018-11-27T11:25:53.814Z,2.73
2018-11-27T11:28:23.452Z,2.96
2018-11-27T11:30:52.919Z,3.01
2018-11-27T11:33:21.655Z,3.07
2018-11-27T11:35:48.805Z,2.98
2018-11-27T11:38:16.009Z,3.02
2018-11-27T11:40:43.202Z,2.93
2018-11-27T11:43:10.448Z,3.04
2018-11-27T11:45:37.640Z,2.80
2018-11-27T11:48:07.135Z,2.54
2018-11-27T11:50:34.640Z,2.40
2018-11-27T11:53:04.615Z,2.64
2018-11-27T11:55:31.805Z,2.61
2018-11-27T11:58:00.031Z,2.72
2018-11-27T12:00:32.043Z,2.79
2018-11-27T12:02:59.732Z,2.86
2018-11-27T12:05:26.899Z,2.84
2018-11-27T12:07:54.079Z,2.68
2018-11-27T12:10:22.859Z,2.84
2018-11-27T12:12:52.747Z,2.80
2018-11-27T12:15:21.177Z,2.81
2018-11-27T12:17:49.559Z,2.93
2018-11-27T12:20:17.779Z,2.99
2018-11-27T12:22:48.942Z,3.02
2018-11-27T12:25:16.164Z,2.99
2018-11-27T12:27:43.419Z,3.23
2018-11-27T12:30:15.506Z,2.99
2018-11-27T12:32:42.666Z,2.97
2018-11-27T12:35:10.783Z,3.04
2018-11-27T12:37:38.023Z,3.10
2018-11-27T12:40:13.263Z,3.34
2018-11-27T12:42:42.764Z,3.27
2018-11-27T12:45:12.031Z,3.15
2018-11-27T12:47:39.349Z,2.99
2018-11-27T12:51:10.099Z,3.11
2018-11-27T12:53:38.273Z,2.77
2018-11-27T12:56:07.618Z,2.98
2018-11-27T12:58:34.765Z,3.00
2018-11-27T13:01:03.527Z,2.74
2018-11-27T13:03:30.657Z,2.93
2018-11-27T13:05:59.267Z,3.00
2018-11-27T13:08:27.903Z,2.73
2018-11-27T13:10:55.067Z,2.68
2018-11-27T13:13:22.259Z,2.88
2018-11-27T13:15:49.574Z,2.73
2018-11-27T13:18:16.899Z,2.57
2018-11-27T13:20:44.010Z,2.54
2018-11-27T13:23:11.234Z,2.58
2018-11-27T13:25:39.318Z,2.64
2018-11-27T13:28:09.876Z,2.59
2018-11-27T13:31:11.818Z,2.69
2018-11-27T13:33:45.102Z,2.62
2018-11-27T13:36:12.307Z,2.43
2018-11-27T13:38:40.405Z,2.40
2018-11-27T13:41:10.896Z,2.45
2018-11-27T13:43:38.191Z,2.34
2018-11-27T13:46:06.890Z,2.54
2018-11-27T13:48:34.054Z,2.41
2018-11-27T13:51:02.361Z,2.23
2018-11-27T13:53:29.707Z,2.46
2018-11-27T13:55:56.710Z,2.40
2018-11-27T13:58:23.994Z,2.52
2018-11-27T14:00:51.942Z,2.46
2018-11-27T14:03:19.151Z,2.15
2018-11-27T14:05:46.337Z,2.18
2018-11-27T14:08:13.557Z,2.38
2018-11-27T14:10:41.510Z,2.28
2018-11-27T14:13:09.802Z,2.35
2018-11-27T14:15:37.389Z,2.48
2018-11-27T14:18:04.952Z,2.24
2018-11-27T14:20:32.174Z,2.40
2018-11-27T14:23:01.615Z,2.16
2018-11-27T14:25:28.819Z,2.11
2018-11-27T14:27:56.117Z,1.99
2018-11-27T14:30:25.496Z,2.19
2018-11-27T14:32:53.112Z,1.98
2018-11-27T14:35:21.299Z,1.77
2018-11-27T14:37:50.538Z,1.81
2018-11-27T14:40:19.831Z,1.80
2018-11-27T14:42:47.644Z,1.79
2018-11-27T14:45:17.577Z,1.70
2018-11-27T14:47:46.437Z,1.66
2018-11-27T14:50:13.703Z,1.68
2018-11-27T14:52:41.112Z,1.54
2018-11-27T14:55:10.851Z,1.54
2018-11-27T14:57:38.071Z,1.52
2018-11-27T15:00:08.635Z,1.48
2018-11-27T15:02:35.882Z,1.56
2018-11-27T15:05:03.171Z,1.51
2018-11-27T15:07:30.397Z,1.36
2018-11-27T15:09:57.658Z,1.36
2018-11-27T15:12:24.969Z,1.31
2018-11-27T15:14:52.192Z,1.23
2018-11-27T15:17:19.431Z,1.25
2018-11-27T15:19:46.661Z,1.18
2018-11-27T15:22:13.874Z,1.15
2018-11-27T15:24:41.457Z,1.06
2018-11-27T15:27:08.689Z,1.01
2018-11-27T15:29:35.938Z,1.01
2018-11-27T15:32:03.257Z,0.87
2018-11-27T15:34:30.505Z,0.81
2018-11-27T15:36:57.753Z,0.79
2018-11-27T15:39:24.935Z,0.83
2018-11-27T15:41:52.199Z,0.81
2018-11-27T15:44:19.441Z,0.85
2018-11-27T15:46:46.719Z,0.80
2018-11-27T15:49:13.928Z,0.92
2018-11-27T15:51:41.174Z,0.87
2018-11-27T15:54:08.430Z,0.73
2018-11-27T15:56:35.711Z,0.68
2018-11-27T15:59:02.973Z,0.76
2018-11-27T16:01:30.296Z,0.85
2018-11-27T16:03:57.474Z,0.89
2018-11-27T16:06:24.828Z,0.94
2018-11-27T16:08:52.088Z,1.11
2018-11-27T16:11:19.303Z,1.22
2018-11-27T16:13:49.175Z,1.17
2018-11-27T16:16:13.949Z,1.39
2018-11-27T16:18:41.200Z,1.54
2018-11-27T16:21:08.479Z,1.37
2018-11-27T16:23:35.671Z,1.34
2018-11-27T16:26:02.856Z,1.52
2018-11-27T16:28:30.586Z,1.39
2018-11-27T16:31:05.542Z,0.89
2018-11-27T16:33:32.743Z,0.84
2018-11-27T16:35:59.982Z,0.94
2018-11-27T16:38:27.198Z,0.94
2018-11-27T16:40:54.547Z,0.83
2018-11-27T16:43:21.749Z,0.72
2018-11-27T16:45:49.026Z,0.47
2018-11-27T16:48:16.243Z,0.66
2018-11-27T16:50:43.473Z,0.87
2018-11-27T16:53:10.694Z,0.65
2018-11-27T16:55:37.835Z,0.42
2018-11-27T16:58:05.228Z,0.23
2018-11-27T17:00:33.452Z,0.12
2018-11-27T17:03:02.803Z,0.03
2018-11-27T17:05:31.303Z,-0.04
2018-11-27T17:07:58.487Z,-0.07
2018-11-27T17:10:25.692Z,0.12
2018-11-27T17:12:54.247Z,0.02
2018-11-27T17:15:23.692Z,0.09
2018-11-27T17:17:50.887Z,0.07
2018-11-27T17:20:21.500Z,0.30
2018-11-27T17:22:48.939Z,0.47
2018-11-27T17:25:22.840Z,0.37
2018-11-27T17:27:50.476Z,0.24
2018-11-27T17:30:20.299Z,0.13
2018-11-27T17:32:47.650Z,-0.18
2018-11-27T17:35:14.797Z,-0.41
2018-11-27T17:37:42.002Z,-0.86
2018-11-27T17:40:10.727Z,-0.80
2018-11-27T17:42:37.981Z,-0.63
2018-11-27T17:45:10.891Z,-0.55
2018-11-27T17:47:38.125Z,-0.50
2018-11-27T17:50:07.127Z,-0.47
2018-11-27T17:52:34.282Z,-0.48
2018-11-27T17:55:01.558Z,-0.51
2018-11-27T17:57:28.811Z,-0.45
2018-11-27T17:59:56.321Z,-0.57
2018-11-27T18:02:23.493Z,-0.61
2018-11-27T18:04:50.672Z,-0.68
2018-11-27T18:07:17.970Z,-0.69
2018-11-27T18:09:45.147Z,-0.81
2018-11-27T18:12:12.276Z,-0.71
2018-11-27T18:14:39.529Z,-0.80
2018-11-27T18:17:06.974Z,-0.85
2018-11-27T18:19:34.203Z,-0.80
2018-11-27T18:22:01.483Z,-0.80
2018-11-27T18:24:28.730Z,-0.76
2018-11-27T18:26:56.285Z,-0.87
2018-11-27T18:29:23.573Z,-0.86
2018-11-27T18:31:51.151Z,-1.12
2018-11-27T18:34:18.396Z,-1.27
2018-11-27T18:36:45.670Z,-1.29
2018-11-27T18:39:12.889Z,-1.25
2018-11-27T18:41:40.073Z,-1.26
2018-11-27T18:44:08.451Z,-1.40
2018-11-27T18:46:35.673Z,-1.52
2018-11-27T18:49:09.628Z,-1.51
2018-11-27T18:51:36.948Z,-1.49
2018-11-27T18:54:04.544Z,-1.30
2018-11-27T18:56:31.757Z,-1.24
2018-11-27T18:58:59.004Z,-1.23
2018-11-27T19:01:26.186Z,-1.18
2018-11-27T19:03:53.450Z,-1.08
2018-11-27T19:06:20.675Z,-1.03
2018-11-27T19:08:47.861Z,-1.04
2018-11-27T19:11:15.078Z,-1.20
2018-11-27T19:13:42.293Z,-1.23
2018-11-27T19:16:09.624Z,-1.32
2018-11-27T19:18:36.863Z,-1.42
2018-11-27T19:21:04.328Z,-1.32
2018-11-27T19:23:31.538Z,-1.30
2018-11-27T19:25:58.805Z,-1.19
2018-11-27T19:28:26.175Z,-1.09
2018-11-27T19:30:53.335Z,-1.05
2018-11-27T19:33:20.549Z,-1.06
2018-11-27T19:35:47.735Z,-1.03
2018-11-27T19:38:16.542Z,-1.13
2018-11-27T19:40:43.775Z,-1.14
2018-11-27T19:43:11.015Z,-1.07
2018-11-27T19:58:37.803Z,-0.92
2018-11-27T20:01:05.578Z,-0.87
2018-11-27T20:03:32.796Z,-0.96
2018-11-27T20:06:00.008Z,-0.91
2018-11-27T20:08:27.229Z,-0.92
2018-11-27T20:10:54.629Z,-0.91
2018-11-27T20:13:21.886Z,-0.94
2018-11-27T20:15:49.111Z,-0.93
2018-11-27T20:18:16.406Z,-0.96
2018-11-27T20:20:43.632Z,-0.92
2018-11-27T20:23:10.884Z,-1.05
2018-11-27T20:25:38.154Z,-1.11
2018-11-27T20:28:06.819Z,-1.23
2018-11-27T20:30:34.488Z,-1.29
2018-11-27T20:33:02.791Z,-1.20
2018-11-27T20:35:30.917Z,-1.16
2018-11-27T20:38:00.265Z,-1.11
2018-11-27T20:40:27.523Z,-1.17
2018-11-27T20:42:54.765Z,-1.10
2018-11-27T20:45:23.347Z,-1.16
2018-11-27T20:47:53.945Z,-1.17
2018-11-27T20:50:22.271Z,-1.24
2018-11-27T20:52:49.506Z,-1.25
2018-11-27T20:55:17.094Z,-1.08
2018-11-27T20:57:47.543Z,-1.04
2018-11-27T21:00:19.422Z,-1.20
2018-11-27T21:02:46.715Z,-1.11
2018-11-27T21:05:13.860Z,-0.94
2018-11-27T21:07:41.059Z,-1.06
2018-11-27T21:10:10.670Z,-0.99
2018-11-27T21:12:38.018Z,-0.93
2018-11-27T21:15:07.780Z,-1.01
2018-11-27T21:17:34.972Z,-0.87
2018-11-27T21:20:02.223Z,-1.01
2018-11-27T21:22:29.461Z,-1.05
2018-11-27T21:24:56.690Z,-1.03
2018-11-27T21:27:24.051Z,-1.02
2018-11-27T21:29:51.808Z,-1.01
2018-11-27T21:32:19.208Z,-1.02
2018-11-27T21:34:46.511Z,-0.94
2018-11-27T21:37:15.152Z,-0.95
2018-11-27T21:39:42.430Z,-1.05
2018-11-27T21:42:09.719Z,-1.06
2018-11-27T21:44:36.927Z,-0.96
2018-11-27T21:47:04.858Z,-0.96
2018-11-27T21:49:32.912Z,-0.96
2018-11-27T21:52:00.066Z,-0.96
2018-11-27T21:54:27.252Z,-0.83
2018-11-27T21:56:54.423Z,-0.83
2018-11-27T21:59:21.579Z,-0.83
2018-11-27T22:01:48.710Z,-0.87
2018-11-27T22:04:16.016Z,-0.78
2018-11-27T22:06:43.196Z,-0.67
2018-11-27T22:09:10.351Z,-0.70
2018-11-27T22:11:37.538Z,-0.79
2018-11-27T22:14:04.717Z,-0.83
2018-11-27T22:16:31.879Z,-0.80
2018-11-27T22:18:59.140Z,-0.89
2018-11-27T22:21:26.298Z,-0.87
2018-11-27T22:23:53.597Z,-0.79
2018-11-27T22:26:20.775Z,-0.81
2018-11-27T22:28:47.982Z,-0.78
2018-11-27T22:31:15.169Z,-0.85
2018-11-27T22:33:42.350Z,-0.93
2018-11-27T22:36:09.538Z,-0.85
2018-11-27T22:38:36.688Z,-0.83
2018-11-27T22:41:03.909Z,-0.87
2018-11-27T22:43:31.044Z,-1.40
2018-11-27T22:45:58.303Z,-0.79
2018-11-27T22:48:25.431Z,-0.88
2018-11-27T22:50:52.595Z,-0.94
2018-11-27T22:53:19.768Z,-0.92
2018-11-27T22:55:46.930Z,-0.72
2018-11-27T22:58:14.148Z,-0.79
2018-11-27T23:00:47.030Z,-0.85
2018-11-27T23:03:14.175Z,-0.97
2018-11-27T23:05:41.341Z,-0.91
2018-11-27T23:08:08.499Z,-0.91
2018-11-27T23:10:36.828Z,-0.79
2018-11-27T23:13:04.545Z,-0.72
2018-11-27T23:15:31.713Z,-0.77
2018-11-27T23:17:58.963Z,-0.92
2018-11-27T23:20:26.096Z,-0.88
2018-11-27T23:22:53.385Z,-0.85
2018-11-27T23:25:20.673Z,-0.91
2018-11-27T23:27:47.871Z,-0.86
2018-11-27T23:30:22.839Z,-0.99
2018-11-27T23:32:56.910Z,-1.01
2018-11-27T23:35:24.051Z,-1.01
2018-11-27T23:37:51.391Z,-1.08
2018-11-27T23:40:19.447Z,-1.11
2018-11-27T23:42:48.631Z,-1.16
2018-11-27T23:45:19.065Z,-1.02
2018-11-27T23:47:46.251Z,-1.15
2018-11-27T23:50:14.625Z,-1.21
2018-11-27T23:52:41.972Z,-1.21
2018-11-27T23:55:11.074Z,-1.24
2018-11-27T23:57:38.529Z,-1.27
